Time;durP1;ratioP1;P1;durP2;ratioP2;P2;SDS_P1;SDS_P2;PMS_P1;PMS_P2;Temp;Humidity;BMP_temperature;BMP_pressure;BME280_temperature;BME280_humidity;BME280_pressure;Samples;Min_cycle;Max_cycle;Signal;HPM_P1;HPM_P2
2023/05/01 00:00:14;;;;;;;;;;;12.10;72.30;;;;;;5086544;28;19932;-66
2023/05/01 00:02:45;;;;;;;;;;;12.00;72.50;;;;;;5088409;28;19935;-66
2023/05/01 00:05:11;;;;;;;;;;;12.00;72.60;;;;;;5086525;28;19928;-66
2023/05/01 00:07:38;;;;;;;;;;;12.10;72.40;;;;;;5089993;28;19932;-66
2023/05/01 00:10:06;;;;;;;;;;;12.00;72.20;;;;;;5088263;28;19991;-67
2023/05/01 00:12:34;;;;;;;;;;;12.10;72.00;;;;;;5089946;28;20511;-66
2023/05/01 00:15:01;;;;;;;;;;;12.00;71.80;;;;;;5090137;28;20294;-65
2023/05/01 00:17:28;;;;;;;;;;;12.10;71.80;;;;;;5089543;28;19928;-66
2023/05/01 00:19:54;;;;;;;;;;;12.00;71.80;;;;;;5090343;28;20357;-66
2023/05/01 00:22:21;;;;;;;;;;;12.00;71.90;;;;;;5088496;28;19935;-66
2023/05/01 00:24:49;;;;;;;;;;;11.90;71.80;;;;;;5087779;28;20353;-66
2023/05/01 00:27:16;;;;;;;;;;;11.90;71.90;;;;;;5090531;28;19963;-66
2023/05/01 00:29:44;;;;;;;;;;;11.90;72.10;;;;;;5087941;28;20432;-66
2023/05/01 00:32:11;;;;;;;;;;;11.90;72.00;;;;;;5086779;28;19932;-66
2023/05/01 00:34:38;;;;;;;;;;;11.80;72.30;;;;;;5064371;28;19960;-65
2023/05/01 00:37:05;;;;;;;;;;;11.90;72.40;;;;;;5069602;28;19952;-64
2023/05/01 00:39:32;;;;;;;;;;;11.80;72.50;;;;;;5088103;28;19932;-66
2023/05/01 00:41:59;;;;;;;;;;;11.80;72.60;;;;;;5071026;28;19932;-66
2023/05/01 00:44:26;;;;;;;;;;;11.70;72.50;;;;;;5067890;28;19939;-65
2023/05/01 00:46:55;;;;;;;;;;;11.70;72.60;;;;;;5089116;28;19928;-66
2023/05/01 00:49:22;;;;;;;;;;;11.70;72.30;;;;;;5088402;28;19939;-66
2023/05/01 00:51:51;;;;;;;;;;;11.70;72.10;;;;;;5088929;28;19928;-66
2023/05/01 00:54:18;;;;;;;;;;;11.70;72.40;;;;;;5089933;28;19959;-65
2023/05/01 00:56:45;;;;;;;;;;;11.60;72.70;;;;;;5087698;28;19928;-66
2023/05/01 00:59:12;;;;;;;;;;;11.60;72.40;;;;;;5088450;28;19924;-66
2023/05/01 01:01:41;;;;;;;;;;;11.60;72.60;;;;;;5089541;28;20446;-67
2023/05/01 01:04:09;;;;;;;;;;;11.60;73.00;;;;;;5089016;28;19924;-66
2023/05/01 01:06:42;;;;;;;;;;;11.50;72.80;;;;;;5089371;28;19951;-66
2023/05/01 01:09:19;;;;;;;;;;;11.60;72.70;;;;;;5088660;28;20368;-64
2023/05/01 01:11:53;;;;;;;;;;;11.50;72.50;;;;;;5070525;28;19932;-65
2023/05/01 01:14:21;;;;;;;;;;;11.60;72.60;;;;;;5088814;28;19930;-66
2023/05/01 01:16:53;;;;;;;;;;;11.50;72.60;;;;;;5068611;28;19928;-66
2023/05/01 01:19:33;;;;;;;;;;;11.50;72.80;;;;;;5089369;28;19924;-65
2023/05/01 01:22:02;;;;;;;;;;;11.40;73.00;;;;;;5070038;28;19928;-66
2023/05/01 01:24:43;;;;;;;;;;;11.40;73.30;;;;;;5089847;28;20264;-66
2023/05/01 01:27:19;;;;;;;;;;;11.40;73.10;;;;;;5068492;28;19932;-64
2023/05/01 01:29:57;;;;;;;;;;;11.40;73.10;;;;;;5088320;28;19928;-65
2023/05/01 01:32:34;;;;;;;;;;;11.30;73.10;;;;;;5070880;28;20442;-65
2023/05/01 01:35:03;;;;;;;;;;;11.20;73.50;;;;;;5090639;28;20272;-65
2023/05/01 01:37:35;;;;;;;;;;;11.20;73.50;;;;;;5093258;28;19928;-65
2023/05/01 01:40:03;;;;;;;;;;;11.20;73.40;;;;;;5092361;28;19932;-65
2023/05/01 01:42:34;;;;;;;;;;;11.20;73.70;;;;;;5090120;28;19931;-66
2023/05/01 01:45:05;;;;;;;;;;;11.20;73.70;;;;;;5092048;28;19928;-65
2023/05/01 01:47:33;;;;;;;;;;;11.20;73.90;;;;;;5067168;28;19996;-65
2023/05/01 01:50:03;;;;;;;;;;;11.20;74.00;;;;;;5063663;28;19936;-65
2023/05/01 01:52:32;;;;;;;;;;;11.10;74.10;;;;;;5084014;28;20056;-65
2023/05/01 01:55:04;;;;;;;;;;;11.10;74.20;;;;;;5069123;28;20577;-64
2023/05/01 01:57:31;;;;;;;;;;;11.10;74.30;;;;;;5070708;28;19925;-64
2023/05/01 01:59:58;;;;;;;;;;;11.10;74.40;;;;;;5089723;28;20409;-67
2023/05/01 02:02:26;;;;;;;;;;;11.00;74.50;;;;;;5074208;28;19924;-66
2023/05/01 02:04:55;;;;;;;;;;;11.00;74.80;;;;;;5090751;28;19928;-64
2023/05/01 02:07:22;;;;;;;;;;;10.90;74.90;;;;;;5073003;28;19932;-64
2023/05/01 02:09:51;;;;;;;;;;;10.90;74.60;;;;;;5090097;28;19928;-65
2023/05/01 02:12:19;;;;;;;;;;;10.90;74.60;;;;;;5079520;28;20023;-66
2023/05/01 02:14:48;;;;;;;;;;;10.90;74.70;;;;;;5073718;28;19924;-67
2023/05/01 02:17:15;;;;;;;;;;;10.90;74.70;;;;;;5074572;28;19949;-66
2023/05/01 02:19:43;;;;;;;;;;;10.80;74.90;;;;;;5092115;28;19928;-66
2023/05/01 02:22:10;;;;;;;;;;;10.80;75.10;;;;;;5073246;28;19932;-65
2023/05/01 02:24:38;;;;;;;;;;;10.80;75.10;;;;;;5092177;28;20064;-65
2023/05/01 02:27:11;;;;;;;;;;;10.70;75.10;;;;;;5088433;28;19932;-66
2023/05/01 02:29:38;;;;;;;;;;;10.70;75.10;;;;;;5067439;28;22577;-66
2023/05/01 02:32:05;;;;;;;;;;;10.80;74.90;;;;;;5065639;28;20007;-66
2023/05/01 02:34:34;;;;;;;;;;;10.80;74.80;;;;;;5088242;28;19935;-66
2023/05/01 02:37:01;;;;;;;;;;;10.70;75.00;;;;;;5090637;28;19964;-65
2023/05/01 02:39:27;;;;;;;;;;;10.70;75.10;;;;;;5073646;28;19951;-65
2023/05/01 02:41:57;;;;;;;;;;;10.70;75.20;;;;;;5084744;28;19939;-63
2023/05/01 02:44:26;;;;;;;;;;;10.70;75.20;;;;;;5071969;28;19975;-66
2023/05/01 02:46:54;;;;;;;;;;;10.60;75.30;;;;;;5070031;28;19934;-67
2023/05/01 02:49:21;;;;;;;;;;;10.60;75.50;;;;;;5088062;28;19935;-66
2023/05/01 02:51:48;;;;;;;;;;;10.60;75.50;;;;;;5091510;28;19924;-65
2023/05/01 02:54:15;;;;;;;;;;;10.60;75.50;;;;;;5088160;28;19924;-66
2023/05/01 02:56:43;;;;;;;;;;;10.50;75.50;;;;;;5071470;28;19924;-66
2023/05/01 02:59:09;;;;;;;;;;;10.40;75.90;;;;;;5088358;28;19934;-67
2023/05/01 03:01:39;;;;;;;;;;;10.40;75.90;;;;;;5070651;28;21558;-65
2023/05/01 03:04:06;;;;;;;;;;;10.40;75.90;;;;;;5083849;28;19932;-66
2023/05/01 03:06:33;;;;;;;;;;;10.40;76.00;;;;;;5071395;28;19924;-65
2023/05/01 03:09:00;;;;;;;;;;;10.30;76.10;;;;;;5088217;28;19985;-66
2023/05/01 03:11:27;;;;;;;;;;;10.30;76.20;;;;;;5069559;28;20017;-65
2023/05/01 03:13:53;;;;;;;;;;;10.30;76.10;;;;;;5088464;28;20471;-66
2023/05/01 03:16:20;;;;;;;;;;;10.30;76.00;;;;;;5088438;28;19935;-64
2023/05/01 03:18:49;;;;;;;;;;;10.40;75.90;;;;;;5088255;28;19928;-65
2023/05/01 03:21:17;;;;;;;;;;;10.30;76.10;;;;;;5087139;28;19924;-65
2023/05/01 03:23:45;;;;;;;;;;;10.30;76.20;;;;;;5089771;28;19935;-66
2023/05/01 03:26:12;;;;;;;;;;;10.20;76.20;;;;;;5065432;28;20272;-64
2023/05/01 03:28:39;;;;;;;;;;;10.20;76.40;;;;;;5069447;28;20268;-66
2023/05/01 03:31:06;;;;;;;;;;;10.20;76.60;;;;;;5069188;28;19924;-66
2023/05/01 03:33:34;;;;;;;;;;;10.20;76.60;;;;;;5073114;28;19924;-66
2023/05/01 03:36:04;;;;;;;;;;;10.10;76.70;;;;;;5088806;28;19932;-66
2023/05/01 03:38:33;;;;;;;;;;;10.10;76.70;;;;;;5067820;28;19932;-65
2023/05/01 03:41:09;;;;;;;;;;;10.10;76.90;;;;;;5091886;28;20022;-65
2023/05/01 03:43:54;;;;;;;;;;;10.10;76.60;;;;;;5086654;28;19939;-66
2023/05/01 03:46:35;;;;;;;;;;;10.10;76.90;;;;;;5067818;28;19924;-65
2023/05/01 03:49:02;;;;;;;;;;;10.10;77.10;;;;;;5070593;28;19924;-65
2023/05/01 03:51:35;;;;;;;;;;;10.10;76.90;;;;;;5072647;28;19928;-66
2023/05/01 03:54:01;;;;;;;;;;;10.10;76.90;;;;;;5070303;28;20007;-65
2023/05/01 03:56:35;;;;;;;;;;;10.10;77.00;;;;;;5070181;28;20396;-65
2023/05/01 03:59:03;;;;;;;;;;;10.10;76.90;;;;;;5071692;28;19998;-65
2023/05/01 04:01:32;;;;;;;;;;;10.10;76.90;;;;;;5064482;28;19928;-66
2023/05/01 04:03:59;;;;;;;;;;;10.10;77.10;;;;;;5088267;28;19939;-66
2023/05/01 04:06:26;;;;;;;;;;;10.00;77.00;;;;;;5071636;28;20524;-64
2023/05/01 04:08:54;;;;;;;;;;;10.10;76.90;;;;;;5069288;28;20624;-65
2023/05/01 04:11:21;;;;;;;;;;;10.10;76.90;;;;;;5088695;28;19924;-66
2023/05/01 04:13:48;;;;;;;;;;;10.00;77.10;;;;;;5081602;28;20030;-67
2023/05/01 04:16:16;;;;;;;;;;;9.90;77.20;;;;;;5068040;28;19932;-65
2023/05/01 04:18:42;;;;;;;;;;;10.00;77.10;;;;;;5087018;28;19954;-67
2023/05/01 04:21:09;;;;;;;;;;;10.00;77.00;;;;;;5089662;28;19928;-65
2023/05/01 04:23:39;;;;;;;;;;;10.00;77.10;;;;;;5069320;28;19977;-64
2023/05/01 04:26:08;;;;;;;;;;;9.90;77.00;;;;;;5085514;28;19935;-65
2023/05/01 04:28:35;;;;;;;;;;;10.10;76.60;;;;;;5067568;28;19969;-66
2023/05/01 04:31:03;;;;;;;;;;;10.10;76.30;;;;;;5064273;28;19942;-66
2023/05/01 04:33:29;;;;;;;;;;;10.10;76.50;;;;;;5067457;28;19985;-65
2023/05/01 04:35:56;;;;;;;;;;;10.00;76.30;;;;;;5090476;28;19935;-68
2023/05/01 04:38:24;;;;;;;;;;;10.10;76.30;;;;;;5069187;28;19935;-65
2023/05/01 04:40:55;;;;;;;;;;;10.10;76.10;;;;;;5086011;28;20395;-65
2023/05/01 04:43:23;;;;;;;;;;;10.00;76.30;;;;;;5088717;28;19936;-65
2023/05/01 04:45:50;;;;;;;;;;;10.10;76.30;;;;;;5087465;28;19924;-65
2023/05/01 04:48:17;;;;;;;;;;;10.10;76.50;;;;;;5087842;28;20295;-65
2023/05/01 04:50:44;;;;;;;;;;;10.10;76.70;;;;;;5065820;28;19935;-65
2023/05/01 04:53:11;;;;;;;;;;;10.10;76.80;;;;;;5083407;28;19934;-64
2023/05/01 04:55:37;;;;;;;;;;;10.10;76.50;;;;;;5086866;28;20000;-65
2023/05/01 04:58:10;;;;;;;;;;;10.20;76.40;;;;;;5070063;28;19928;-66
2023/05/01 05:00:38;;;;;;;;;;;10.10;76.60;;;;;;5080310;28;20345;-65
2023/05/01 05:03:08;;;;;;;;;;;10.20;76.80;;;;;;5069237;28;20286;-64
2023/05/01 05:05:35;;;;;;;;;;;10.20;76.60;;;;;;5069349;28;19924;-65
2023/05/01 05:08:04;;;;;;;;;;;10.20;76.80;;;;;;5067414;28;19930;-64
2023/05/01 05:10:30;;;;;;;;;;;10.20;76.80;;;;;;5093258;28;19932;-65
2023/05/01 05:13:20;;;;;;;;;;;10.20;77.00;;;;;;5089679;28;19940;-64
2023/05/01 05:15:55;;;;;;;;;;;10.20;76.90;;;;;;5073218;28;19960;-64
2023/05/01 05:18:23;;;;;;;;;;;10.30;76.80;;;;;;5068522;28;19959;-64
2023/05/01 05:20:51;;;;;;;;;;;10.30;76.70;;;;;;5072983;28;20398;-64
2023/05/01 05:23:18;;;;;;;;;;;10.30;76.90;;;;;;5089999;28;20293;-64
2023/05/01 05:25:45;;;;;;;;;;;10.30;77.20;;;;;;5089735;28;19931;-64
2023/05/01 05:28:11;;;;;;;;;;;10.30;77.40;;;;;;5071682;28;19924;-64
2023/05/01 05:30:38;;;;;;;;;;;10.30;77.30;;;;;;5090551;28;19924;-65
2023/05/01 05:33:09;;;;;;;;;;;10.40;77.00;;;;;;5072843;28;19924;-64
2023/05/01 05:35:36;;;;;;;;;;;10.40;77.00;;;;;;5068891;28;19935;-64
2023/05/01 05:38:03;;;;;;;;;;;10.40;76.90;;;;;;5071234;28;19927;-65
2023/05/01 05:40:33;;;;;;;;;;;10.40;76.80;;;;;;5071943;28;19928;-64
2023/05/01 05:43:00;;;;;;;;;;;10.40;76.80;;;;;;5072435;28;19942;-64
2023/05/01 05:45:29;;;;;;;;;;;10.40;76.80;;;;;;5067443;28;19928;-64
2023/05/01 05:47:56;;;;;;;;;;;10.40;76.90;;;;;;5069276;28;19935;-64
2023/05/01 05:50:24;;;;;;;;;;;10.50;76.50;;;;;;5070959;28;19962;-63
2023/05/01 05:52:51;;;;;;;;;;;10.60;76.10;;;;;;5090311;28;19932;-65
2023/05/01 05:55:18;;;;;;;;;;;10.60;76.10;;;;;;5089370;28;19934;-65
2023/05/01 05:57:59;;;;;;;;;;;10.70;76.20;;;;;;5074850;28;20014;-65
2023/05/01 06:00:26;;;;;;;;;;;10.70;76.30;;;;;;5084314;28;19950;-65
2023/05/01 06:02:53;;;;;;;;;;;10.70;76.30;;;;;;5072870;28;20365;-66
2023/05/01 06:05:24;;;;;;;;;;;10.80;76.30;;;;;;5066247;28;19932;-65
2023/05/01 06:07:52;;;;;;;;;;;10.80;76.10;;;;;;5089695;28;19963;-65
2023/05/01 06:10:18;;;;;;;;;;;10.90;76.00;;;;;;5068831;28;19928;-64
2023/05/01 06:12:47;;;;;;;;;;;10.90;76.10;;;;;;5087680;28;19947;-65
2023/05/01 06:15:15;;;;;;;;;;;11.00;76.00;;;;;;5089644;28;19932;-65
2023/05/01 06:17:46;;;;;;;;;;;11.00;75.20;;;;;;5073519;28;19928;-64
2023/05/01 06:20:13;;;;;;;;;;;11.10;75.60;;;;;;5088850;28;19979;-66
2023/05/01 06:22:40;;;;;;;;;;;11.10;75.40;;;;;;5089425;28;20031;-66
2023/05/01 06:25:18;;;;;;;;;;;11.20;74.70;;;;;;5071186;28;20040;-66
2023/05/01 06:27:45;;;;;;;;;;;11.20;74.60;;;;;;5070442;28;20007;-66
2023/05/01 06:30:13;;;;;;;;;;;11.20;75.60;;;;;;5070109;28;19986;-65
2023/05/01 06:32:42;;;;;;;;;;;11.30;75.40;;;;;;5074091;28;19928;-66
2023/05/01 06:35:10;;;;;;;;;;;11.40;75.60;;;;;;5069721;28;19928;-66
2023/05/01 06:37:37;;;;;;;;;;;11.40;75.50;;;;;;5088767;28;19924;-66
2023/05/01 06:40:07;;;;;;;;;;;11.50;74.70;;;;;;5072983;28;19928;-66
2023/05/01 06:42:35;;;;;;;;;;;11.50;74.80;;;;;;5067553;28;20462;-65
2023/05/01 06:45:03;;;;;;;;;;;11.70;75.00;;;;;;5071974;28;20288;-65
2023/05/01 06:47:31;;;;;;;;;;;11.80;74.50;;;;;;5089257;28;19935;-66
2023/05/01 06:49:57;;;;;;;;;;;11.80;74.20;;;;;;5088171;28;19924;-64
2023/05/01 06:52:25;;;;;;;;;;;11.80;74.00;;;;;;5068904;28;19924;-64
2023/05/01 06:54:52;;;;;;;;;;;11.90;74.30;;;;;;5084262;28;20012;-64
2023/05/01 06:57:19;;;;;;;;;;;12.10;74.00;;;;;;5070523;28;19932;-65
2023/05/01 06:59:47;;;;;;;;;;;12.10;73.20;;;;;;5085308;28;19924;-66
2023/05/01 07:02:14;;;;;;;;;;;12.20;73.50;;;;;;5089389;28;20382;-66
2023/05/01 07:04:43;;;;;;;;;;;12.30;72.70;;;;;;5091742;28;19938;-67
2023/05/01 07:07:12;;;;;;;;;;;12.40;71.90;;;;;;5068745;28;20568;-66
2023/05/01 07:09:39;;;;;;;;;;;12.50;71.60;;;;;;5088109;28;20374;-66
2023/05/01 07:12:06;;;;;;;;;;;12.50;71.00;;;;;;5088742;28;19925;-67
2023/05/01 07:14:35;;;;;;;;;;;12.60;69.70;;;;;;5087667;28;19928;-66
2023/05/01 07:17:04;;;;;;;;;;;12.70;69.60;;;;;;5084785;28;19931;-65
2023/05/01 07:19:31;;;;;;;;;;;12.80;68.90;;;;;;5090438;28;19927;-66
2023/05/01 07:21:58;;;;;;;;;;;12.90;68.40;;;;;;5088948;28;19985;-65
2023/05/01 07:24:25;;;;;;;;;;;12.90;68.50;;;;;;5089934;28;19969;-65
2023/05/01 07:26:52;;;;;;;;;;;13.00;68.20;;;;;;5073380;28;19932;-66
2023/05/01 07:29:20;;;;;;;;;;;13.10;67.40;;;;;;5090982;28;19932;-65
2023/05/01 07:31:47;;;;;;;;;;;13.20;66.00;;;;;;5068780;28;19934;-65
2023/05/01 07:34:16;;;;;;;;;;;13.40;65.90;;;;;;5085088;28;19928;-66
2023/05/01 07:36:43;;;;;;;;;;;13.60;66.10;;;;;;5088890;28;20288;-67
2023/05/01 07:39:10;;;;;;;;;;;13.60;64.80;;;;;;5087628;28;19934;-68
2023/05/01 07:41:36;;;;;;;;;;;13.70;64.70;;;;;;5089382;28;19928;-66
2023/05/01 07:44:03;;;;;;;;;;;13.90;64.20;;;;;;5087975;28;19950;-66
2023/05/01 07:46:31;;;;;;;;;;;13.90;64.00;;;;;;5089545;28;19978;-67
2023/05/01 07:48:57;;;;;;;;;;;14.00;64.20;;;;;;5088241;28;19928;-65
2023/05/01 07:51:26;;;;;;;;;;;14.10;63.00;;;;;;5086182;28;20867;-65
2023/05/01 07:53:53;;;;;;;;;;;14.10;63.20;;;;;;5088544;28;19928;-65
2023/05/01 07:56:22;;;;;;;;;;;14.10;62.70;;;;;;5066935;28;20339;-64
2023/05/01 07:58:49;;;;;;;;;;;14.10;62.80;;;;;;5085278;28;19938;-64
2023/05/01 08:01:16;;;;;;;;;;;14.10;62.70;;;;;;5083995;28;19950;-67
2023/05/01 08:03:43;;;;;;;;;;;14.20;61.70;;;;;;5088664;28;20798;-67
2023/05/01 08:06:09;;;;;;;;;;;14.20;62.20;;;;;;5086836;28;19924;-67
2023/05/01 08:08:37;;;;;;;;;;;14.20;62.30;;;;;;5086895;28;19924;-67
2023/05/01 08:11:04;;;;;;;;;;;14.30;62.50;;;;;;5088628;28;19939;-67
2023/05/01 08:13:31;;;;;;;;;;;14.40;62.30;;;;;;5084795;28;20408;-67
2023/05/01 08:16:00;;;;;;;;;;;14.50;62.40;;;;;;5087733;28;19924;-67
2023/05/01 08:18:27;;;;;;;;;;;14.60;62.10;;;;;;5085572;28;19959;-68
2023/05/01 08:20:55;;;;;;;;;;;14.70;61.10;;;;;;5087496;28;19952;-67
2023/05/01 08:23:23;;;;;;;;;;;14.80;60.40;;;;;;5084242;28;19928;-66
2023/05/01 08:26:00;;;;;;;;;;;14.80;60.40;;;;;;5082710;28;20398;-66
2023/05/01 08:28:27;;;;;;;;;;;14.90;60.40;;;;;;5089282;28;19928;-67
2023/05/01 08:30:54;;;;;;;;;;;14.90;60.40;;;;;;5087346;28;19981;-67
2023/05/01 08:33:21;;;;;;;;;;;15.00;59.00;;;;;;5088963;28;19978;-68
2023/05/01 08:35:48;;;;;;;;;;;15.10;59.60;;;;;;5065209;28;20027;-68
2023/05/01 08:38:16;;;;;;;;;;;15.10;59.20;;;;;;5085573;28;19955;-68
2023/05/01 08:40:47;;;;;;;;;;;15.20;58.80;;;;;;5087896;28;19924;-67
2023/05/01 08:43:15;;;;;;;;;;;15.20;59.10;;;;;;5088997;28;19924;-67
2023/05/01 08:45:42;;;;;;;;;;;15.30;58.70;;;;;;5092075;28;19935;-67
2023/05/01 08:48:10;;;;;;;;;;;15.30;58.90;;;;;;5092842;28;19936;-67
2023/05/01 08:50:38;;;;;;;;;;;15.40;58.80;;;;;;5087524;28;19974;-68
2023/05/01 08:53:05;;;;;;;;;;;15.50;58.40;;;;;;5087403;28;19928;-67
2023/05/01 08:55:33;;;;;;;;;;;15.60;58.60;;;;;;5092723;28;19932;-67
2023/05/01 08:58:01;;;;;;;;;;;15.60;58.80;;;;;;5090729;28;19928;-67
2023/05/01 09:00:47;;;;;;;;;;;15.70;58.30;;;;;;5092497;28;19950;-67
2023/05/01 09:03:14;;;;;;;;;;;15.80;58.30;;;;;;5091465;28;20295;-67
2023/05/01 09:05:41;;;;;;;;;;;15.90;58.50;;;;;;5088386;28;19931;-65
2023/05/01 09:08:07;;;;;;;;;;;15.90;57.90;;;;;;5088345;28;19935;-67
2023/05/01 09:10:38;;;;;;;;;;;15.90;57.60;;;;;;5090810;28;20017;-67
2023/05/01 09:13:07;;;;;;;;;;;15.90;57.70;;;;;;5072908;28;19931;-68
2023/05/01 09:15:36;;;;;;;;;;;16.00;57.90;;;;;;5093913;28;19924;-67
2023/05/01 09:18:03;;;;;;;;;;;16.00;57.50;;;;;;5090164;28;19939;-68
2023/05/01 09:20:29;;;;;;;;;;;16.00;57.80;;;;;;5087581;28;19924;-66
2023/05/01 09:22:58;;;;;;;;;;;16.00;57.90;;;;;;5092758;28;19924;-66
2023/05/01 09:25:25;;;;;;;;;;;16.10;57.80;;;;;;5092261;28;20203;-68
2023/05/01 09:27:52;;;;;;;;;;;16.10;57.50;;;;;;5092137;28;19970;-67
2023/05/01 09:30:32;;;;;;;;;;;16.10;57.20;;;;;;5090057;28;19924;-66
2023/05/01 09:33:07;;;;;;;;;;;16.20;56.40;;;;;;5092232;28;19930;-69
2023/05/01 09:35:48;;;;;;;;;;;16.30;56.20;;;;;;5087969;28;19927;-68
2023/05/01 09:38:17;;;;;;;;;;;16.30;56.40;;;;;;5092371;28;19971;-67
2023/05/01 09:40:43;;;;;;;;;;;16.40;57.00;;;;;;5089276;28;19927;-67
2023/05/01 09:43:10;;;;;;;;;;;16.40;56.60;;;;;;5088688;28;19935;-68
2023/05/01 09:45:38;;;;;;;;;;;16.50;56.30;;;;;;5089734;28;19947;-68
2023/05/01 09:48:13;;;;;;;;;;;16.50;56.20;;;;;;5091863;28;19928;-67
2023/05/01 09:50:41;;;;;;;;;;;16.60;55.50;;;;;;5091898;28;20294;-68
2023/05/01 09:53:07;;;;;;;;;;;16.60;55.40;;;;;;5086890;28;19932;-67
2023/05/01 09:55:35;;;;;;;;;;;16.60;55.40;;;;;;5088175;28;19975;-67
2023/05/01 09:58:02;;;;;;;;;;;16.80;55.70;;;;;;5086579;28;20878;-67
2023/05/01 10:00:29;;;;;;;;;;;16.80;55.30;;;;;;5089286;28;19935;-67
2023/05/01 10:02:55;;;;;;;;;;;16.90;55.50;;;;;;5091083;28;19951;-69
2023/05/01 10:05:24;;;;;;;;;;;16.90;56.10;;;;;;5089799;28;19924;-67
2023/05/01 10:07:57;;;;;;;;;;;17.00;55.80;;;;;;5088863;28;19932;-67
2023/05/01 10:10:24;;;;;;;;;;;16.90;56.10;;;;;;5087718;28;19931;-68
2023/05/01 10:12:54;;;;;;;;;;;16.90;55.90;;;;;;5089800;28;19932;-68
2023/05/01 10:15:21;;;;;;;;;;;16.90;55.50;;;;;;5089706;28;19928;-67
2023/05/01 10:17:50;;;;;;;;;;;16.90;55.30;;;;;;5070057;28;19924;-67
2023/05/01 10:20:17;;;;;;;;;;;17.00;55.20;;;;;;5085280;28;19932;-67
2023/05/01 10:22:45;;;;;;;;;;;17.10;55.10;;;;;;5089520;28;20137;-67
2023/05/01 10:25:12;;;;;;;;;;;17.10;55.30;;;;;;5071042;28;20574;-68
2023/05/01 10:27:40;;;;;;;;;;;17.10;54.70;;;;;;5088792;28;19989;-68
2023/05/01 10:30:07;;;;;;;;;;;17.20;55.10;;;;;;5088189;28;19932;-65
2023/05/01 10:32:35;;;;;;;;;;;17.20;55.20;;;;;;5087909;28;19924;-68
2023/05/01 10:35:04;;;;;;;;;;;17.30;55.20;;;;;;5089272;28;19952;-67
2023/05/01 10:37:34;;;;;;;;;;;17.30;55.20;;;;;;5087578;28;19939;-68
2023/05/01 10:40:22;;;;;;;;;;;17.30;55.10;;;;;;5068086;28;19924;-68
2023/05/01 10:43:08;;;;;;;;;;;17.30;55.40;;;;;;5089715;28;19932;-67
2023/05/01 10:45:35;;;;;;;;;;;17.30;55.20;;;;;;5089112;28;19924;-68
2023/05/01 10:48:04;;;;;;;;;;;17.20;55.10;;;;;;5090495;28;19928;-69
2023/05/01 10:50:31;;;;;;;;;;;17.20;55.10;;;;;;5091259;28;19924;-69
2023/05/01 10:53:17;;;;;;;;;;;17.10;55.00;;;;;;5088603;28;19928;-69
2023/05/01 10:55:45;;;;;;;;;;;17.10;55.30;;;;;;5090552;28;19924;-69
2023/05/01 10:58:12;;;;;;;;;;;17.10;55.30;;;;;;5089106;28;19959;-68
2023/05/01 11:00:39;;;;;;;;;;;17.10;55.30;;;;;;5090746;28;19924;-68
2023/05/01 11:03:24;;;;;;;;;;;17.10;55.00;;;;;;5086252;28;21729;-68
2023/05/01 11:06:06;;;;;;;;;;;17.20;55.00;;;;;;5076159;28;19928;-66
2023/05/01 11:08:34;;;;;;;;;;;17.20;54.80;;;;;;5092361;28;19924;-69
2023/05/01 11:11:15;;;;;;;;;;;17.20;54.70;;;;;;5087084;28;19935;-66
2023/05/01 11:13:57;;;;;;;;;;;17.20;55.20;;;;;;5089230;28;19935;-68
2023/05/01 11:16:42;;;;;;;;;;;17.30;54.90;;;;;;5089095;28;19932;-68
2023/05/01 11:19:10;;;;;;;;;;;17.20;54.80;;;;;;5090655;28;19931;-67
2023/05/01 11:21:37;;;;;;;;;;;17.20;54.70;;;;;;5082422;28;19924;-68
2023/05/01 11:24:04;;;;;;;;;;;17.20;54.80;;;;;;5090692;28;19931;-68
2023/05/01 11:26:31;;;;;;;;;;;17.20;54.80;;;;;;5091448;28;19924;-67
2023/05/01 11:29:00;;;;;;;;;;;17.10;54.90;;;;;;5091323;28;19928;-68
2023/05/01 11:31:27;;;;;;;;;;;17.10;54.50;;;;;;5084979;28;20048;-66
2023/05/01 11:33:56;;;;;;;;;;;17.10;54.60;;;;;;5086018;28;19931;-68
2023/05/01 11:36:22;;;;;;;;;;;17.10;54.50;;;;;;5087018;28;20387;-68
2023/05/01 11:38:50;;;;;;;;;;;17.00;54.30;;;;;;5085272;28;20576;-68
2023/05/01 11:41:19;;;;;;;;;;;17.10;54.50;;;;;;5076596;28;19931;-68
2023/05/01 11:43:50;;;;;;;;;;;17.00;54.40;;;;;;5088703;28;19928;-67
2023/05/01 11:46:26;;;;;;;;;;;17.00;54.20;;;;;;5087377;28;19939;-68
2023/05/01 11:48:52;;;;;;;;;;;17.00;54.20;;;;;;5086007;28;20035;-68
2023/05/01 11:51:19;;;;;;;;;;;16.90;53.60;;;;;;5084639;28;19928;-68
2023/05/01 11:53:59;;;;;;;;;;;16.90;53.70;;;;;;5081946;28;19935;-67
2023/05/01 11:56:26;;;;;;;;;;;16.90;53.70;;;;;;5083718;28;19959;-68
2023/05/01 11:58:53;;;;;;;;;;;16.90;53.80;;;;;;5067743;28;19928;-68
2023/05/01 12:01:19;;;;;;;;;;;16.90;54.10;;;;;;5086932;28;19924;-68
2023/05/01 12:03:48;;;;;;;;;;;16.90;53.80;;;;;;5086690;28;19924;-68
2023/05/01 12:06:15;;;;;;;;;;;16.90;53.60;;;;;;5085694;28;20685;-68
2023/05/01 12:08:43;;;;;;;;;;;16.90;54.00;;;;;;5089168;28;19924;-68
2023/05/01 12:11:11;;;;;;;;;;;16.90;53.80;;;;;;5090267;28;19928;-67
2023/05/01 12:13:39;;;;;;;;;;;16.90;53.90;;;;;;5084505;28;19939;-67
2023/05/01 12:16:06;;;;;;;;;;;16.90;53.70;;;;;;5084757;28;19935;-68
2023/05/01 12:18:32;;;;;;;;;;;16.90;53.70;;;;;;5087409;28;19958;-68
2023/05/01 12:21:01;;;;;;;;;;;16.90;53.90;;;;;;5069281;28;19924;-68
2023/05/01 12:23:36;;;;;;;;;;;17.10;53.60;;;;;;5082539;28;19932;-67
2023/05/01 12:26:15;;;;;;;;;;;17.20;53.60;;;;;;5069944;28;19931;-67
2023/05/01 12:28:53;;;;;;;;;;;17.30;53.60;;;;;;5089295;28;19924;-67
2023/05/01 12:31:59;;;;;;;;;;;17.40;53.60;;;;;;5075008;28;19924;-67
2023/05/01 12:34:37;;;;;;;;;;;17.40;53.00;;;;;;5028510;28;19926;-68
2023/05/01 12:37:06;;;;;;;;;;;17.50;53.50;;;;;;5064213;28;19924;-68
2023/05/01 12:39:37;;;;;;;;;;;17.60;53.30;;;;;;5087709;28;19975;-66
2023/05/01 12:42:04;;;;;;;;;;;17.60;53.10;;;;;;5090763;28;19924;-68
2023/05/01 12:44:40;;;;;;;;;;;17.70;53.30;;;;;;5091376;28;20016;-66
2023/05/01 12:47:07;;;;;;;;;;;17.80;53.30;;;;;;5087954;28;20019;-67
2023/05/01 12:49:36;;;;;;;;;;;17.90;52.70;;;;;;5090520;28;19930;-68
2023/05/01 12:52:03;;;;;;;;;;;18.00;52.40;;;;;;5090603;28;19924;-67
2023/05/01 12:54:33;;;;;;;;;;;18.10;52.50;;;;;;5091420;28;19981;-67
2023/05/01 12:57:07;;;;;;;;;;;18.10;52.70;;;;;;5089808;28;19959;-67
2023/05/01 12:59:35;;;;;;;;;;;18.20;52.50;;;;;;5089347;28;19932;-68
2023/05/01 13:02:02;;;;;;;;;;;18.20;52.00;;;;;;5089848;28;19939;-67
2023/05/01 13:04:31;;;;;;;;;;;18.20;51.40;;;;;;5087457;28;20007;-67
2023/05/01 13:06:59;;;;;;;;;;;18.30;51.20;;;;;;5090823;28;19939;-67
2023/05/01 13:09:27;;;;;;;;;;;18.20;51.50;;;;;;5087909;28;19928;-67
2023/05/01 13:11:59;;;;;;;;;;;18.20;51.30;;;;;;5090409;28;20021;-67
2023/05/01 13:14:26;;;;;;;;;;;18.20;51.00;;;;;;5089663;28;20014;-64
2023/05/01 13:16:54;;;;;;;;;;;18.20;51.10;;;;;;5089813;28;19938;-67
2023/05/01 13:19:28;;;;;;;;;;;18.20;51.00;;;;;;5090022;28;19924;-67
2023/05/01 13:21:56;;;;;;;;;;;18.20;50.70;;;;;;5090226;28;19931;-67
2023/05/01 13:24:23;;;;;;;;;;;18.20;50.80;;;;;;5089270;28;19936;-68
2023/05/01 13:26:58;;;;;;;;;;;18.40;50.70;;;;;;5089844;28;19924;-67
2023/05/01 13:29:27;;;;;;;;;;;18.40;50.60;;;;;;5073002;28;19934;-68
2023/05/01 13:31:53;;;;;;;;;;;18.50;50.40;;;;;;5092775;28;20343;-67
2023/05/01 13:34:22;;;;;;;;;;;18.50;50.60;;;;;;5092513;28;20310;-67
2023/05/01 13:36:49;;;;;;;;;;;18.40;50.60;;;;;;5093386;28;20341;-66
2023/05/01 13:39:18;;;;;;;;;;;18.50;50.80;;;;;;5090614;28;20038;-67
2023/05/01 13:41:45;;;;;;;;;;;18.50;51.00;;;;;;5093316;28;19931;-67
2023/05/01 13:44:12;;;;;;;;;;;18.60;51.20;;;;;;5093314;28;19943;-67
2023/05/01 13:46:41;;;;;;;;;;;18.60;51.10;;;;;;5092264;28;19934;-68
2023/05/01 13:49:08;;;;;;;;;;;18.60;50.80;;;;;;5092170;28;20018;-68
2023/05/01 13:51:36;;;;;;;;;;;18.60;50.10;;;;;;5094254;28;19932;-68
2023/05/01 13:54:03;;;;;;;;;;;18.60;50.10;;;;;;5092155;28;20021;-67
2023/05/01 13:56:31;;;;;;;;;;;18.60;49.40;;;;;;5092657;28;19924;-66
2023/05/01 13:58:59;;;;;;;;;;;18.60;48.90;;;;;;5093849;28;19928;-67
2023/05/01 14:01:26;;;;;;;;;;;18.70;48.80;;;;;;5093940;28;19976;-67
2023/05/01 14:03:55;;;;;;;;;;;18.70;48.30;;;;;;5093463;28;20335;-66
2023/05/01 14:06:23;;;;;;;;;;;18.80;48.20;;;;;;5091698;28;19945;-67
2023/05/01 14:08:51;;;;;;;;;;;18.80;47.90;;;;;;5089035;28;20425;-67
2023/05/01 14:11:18;;;;;;;;;;;18.80;48.70;;;;;;5092957;28;20014;-66
2023/05/01 14:13:46;;;;;;;;;;;18.90;48.80;;;;;;5091761;28;20027;-67
2023/05/01 14:16:20;;;;;;;;;;;18.90;49.10;;;;;;5089325;28;19932;-67
2023/05/01 14:18:47;;;;;;;;;;;18.80;47.90;;;;;;5090399;28;20077;-67
2023/05/01 14:21:17;;;;;;;;;;;18.80;47.40;;;;;;5090343;28;20445;-67
2023/05/01 14:23:44;;;;;;;;;;;18.80;47.60;;;;;;5090883;28;19928;-66
2023/05/01 14:26:20;;;;;;;;;;;18.70;47.50;;;;;;5092195;28;19982;-67